createdAt,value
2022-12-11T00:00:40.992Z,101340.03
2022-12-11T00:03:12.765Z,101341.75
2022-12-11T00:05:42.514Z,101341.75
2022-12-11T00:08:08.967Z,101327.03
2022-12-11T00:10:37.943Z,101334.75
2022-12-11T00:13:05.136Z,101332.91
2022-12-11T00:15:32.201Z,101336.28
2022-12-11T00:17:58.621Z,101338.88
2022-12-11T00:20:25.045Z,101346.69
2022-12-11T00:22:51.377Z,101338.00
2022-12-11T00:25:17.890Z,101337.09
2022-12-11T00:27:46.129Z,101338.72
2022-12-11T00:30:13.182Z,101342.97
2022-12-11T00:32:39.580Z,101335.28
2022-12-11T00:35:06.167Z,101333.47
2022-12-11T00:37:32.630Z,101342.97
2022-12-11T00:39:59.074Z,101341.22
2022-12-11T00:42:25.458Z,101327.38
2022-12-11T00:44:52.085Z,101329.06
2022-12-11T00:47:18.427Z,101320.38
2022-12-11T00:49:49.569Z,101323.81
2022-12-11T00:52:17.968Z,101319.41
2022-12-11T00:54:44.929Z,101317.66
2022-12-11T00:57:11.458Z,101313.38
2022-12-11T00:59:37.866Z,101319.28
2022-12-11T01:02:04.247Z,101314.94
2022-12-11T01:04:30.630Z,101319.16
2022-12-11T01:06:57.027Z,101309.69
2022-12-11T01:09:41.789Z,101318.31
2022-12-11T01:12:08.217Z,101313.97
2022-12-11T01:14:34.605Z,101307.94
2022-12-11T01:17:00.968Z,101309.63
2022-12-11T01:19:27.404Z,101311.31
2022-12-11T01:21:54.058Z,101309.50
2022-12-11T01:24:20.621Z,101309.50
2022-12-11T01:26:46.992Z,101317.28
2022-12-11T01:29:13.305Z,101319.06
2022-12-11T01:31:39.690Z,101315.63
2022-12-11T01:34:06.040Z,101319.06
2022-12-11T01:36:32.421Z,101325.09
2022-12-11T01:38:58.798Z,101317.28
2022-12-11T01:41:25.181Z,101317.28
2022-12-11T01:44:03.736Z,101326.78
2022-12-11T01:46:31.587Z,101323.28
2022-12-11T01:48:59.764Z,101324.03
2022-12-11T01:51:29.298Z,101323.28
2022-12-11T01:54:02.301Z,101329.31
2022-12-11T01:56:32.410Z,101328.41
2022-12-11T01:59:02.920Z,101319.75
2022-12-11T02:01:37.033Z,101317.09
2022-12-11T02:04:04.317Z,101314.56
2022-12-11T02:06:34.974Z,101317.16
2022-12-11T02:09:03.336Z,101310.28
2022-12-11T02:11:40.483Z,101310.16
2022-12-11T02:14:48.503Z,101298.91
2022-12-11T02:17:22.562Z,101300.66
2022-12-11T02:20:12.921Z,101298.88
2022-12-11T02:22:48.276Z,101298.88
2022-12-11T02:25:25.665Z,101301.41
2022-12-11T02:28:06.660Z,101286.66
2022-12-11T02:30:37.099Z,101291.84
2022-12-11T02:33:03.599Z,101288.34
2022-12-11T02:35:38.089Z,101286.53
2022-12-11T02:38:10.146Z,101279.56
2022-12-11T02:40:39.857Z,101285.56
2022-12-11T02:43:09.984Z,101281.22
2022-12-11T02:45:39.699Z,101281.22
2022-12-11T02:48:08.127Z,101276.03
2022-12-11T02:50:37.948Z,101280.31
2022-12-11T02:53:07.229Z,101280.25
2022-12-11T02:55:37.327Z,101278.44
2022-12-11T02:58:13.026Z,101288.84
2022-12-11T03:00:39.562Z,101286.16
2022-12-11T03:03:06.157Z,101286.16
2022-12-11T03:05:32.681Z,101280.97
2022-12-11T03:07:59.129Z,101290.38
2022-12-11T03:10:25.570Z,101284.34
2022-12-11T03:12:55.443Z,101286.03
2022-12-11T03:15:30.175Z,101276.53
2022-12-11T03:18:35.602Z,101287.72
2022-12-11T03:21:23.984Z,101286.03
2022-12-11T03:24:05.146Z,101297.25
2022-12-11T03:26:39.178Z,101294.63
2022-12-11T03:29:16.768Z,101291.09
2022-12-11T03:32:09.489Z,101294.47
2022-12-11T03:34:44.425Z,101291.03
2022-12-11T03:37:13.221Z,101282.41
2022-12-11T03:39:46.623Z,101289.28
2022-12-11T03:42:16.441Z,101284.09
2022-12-11T03:44:47.574Z,101290.97
2022-12-11T03:47:19.750Z,101285.78
2022-12-11T03:49:48.536Z,101290.06
2022-12-11T03:52:16.821Z,101287.47
2022-12-11T03:54:46.233Z,101287.47
2022-12-11T03:57:16.101Z,101283.06
2022-12-11T03:59:42.567Z,101268.34
2022-12-11T04:02:10.693Z,101271.03
2022-12-11T04:04:41.698Z,101279.66
2022-12-11T04:07:09.178Z,101274.47
2022-12-11T04:09:35.727Z,101276.16
2022-12-11T04:12:02.045Z,101274.47
2022-12-11T04:14:47.322Z,101283.09
2022-12-11T04:17:33.654Z,101273.56
2022-12-11T04:20:18.522Z,101272.72
2022-12-11T04:23:03.246Z,101275.38
2022-12-11T04:25:29.650Z,101272.00
2022-12-11T04:27:56.025Z,101273.69
2022-12-11T04:30:28.009Z,101268.50
2022-12-11T04:32:57.178Z,101256.41
2022-12-11T04:35:23.638Z,101256.41
2022-12-11T04:37:50.242Z,101259.09
2022-12-11T04:40:19.049Z,101264.28
2022-12-11T04:42:45.701Z,101263.44
2022-12-11T04:45:13.127Z,101258.25
2022-12-11T04:47:41.255Z,101252.25
2022-12-11T04:50:11.408Z,101249.66
2022-12-11T04:52:37.863Z,101244.47
2022-12-11T04:55:06.274Z,101247.97
2022-12-11T04:57:32.673Z,101248.03
2022-12-11T04:59:59.867Z,101256.69
2022-12-11T05:02:26.804Z,101253.16
2022-12-11T05:04:53.237Z,101249.78
2022-12-11T05:07:19.601Z,101255.94
2022-12-11T05:09:45.954Z,101256.00
2022-12-11T05:12:12.287Z,101262.06
2022-12-11T05:14:38.797Z,101267.31
2022-12-11T05:17:05.186Z,101271.66
2022-12-11T05:19:31.558Z,101265.63
2022-12-11T05:21:57.940Z,101268.22
2022-12-11T05:24:24.334Z,101257.00
2022-12-11T05:26:50.743Z,101257.00
2022-12-11T05:29:17.087Z,101255.25
2022-12-11T05:31:43.738Z,101260.44
2022-12-11T05:34:10.291Z,101255.25
2022-12-11T05:36:36.933Z,101252.66
2022-12-11T05:39:04.275Z,101250.06
2022-12-11T05:41:32.674Z,101248.38
2022-12-11T05:44:00.210Z,101245.81
2022-12-11T05:46:29.182Z,101246.69
2022-12-11T05:48:58.231Z,101248.38
2022-12-11T05:51:25.448Z,101253.56
2022-12-11T05:53:53.007Z,101246.59
2022-12-11T05:56:28.195Z,101244.97
2022-12-11T05:58:55.707Z,101252.81
2022-12-11T06:01:26.550Z,101247.56
2022-12-11T06:03:54.451Z,101246.69
2022-12-11T06:06:21.221Z,101247.56
2022-12-11T06:08:51.146Z,101239.78
2022-12-11T06:11:23.609Z,101238.94
2022-12-11T06:13:50.561Z,101238.09
2022-12-11T06:16:17.098Z,101237.16
2022-12-11T06:18:44.906Z,101234.56
2022-12-11T06:21:15.071Z,101234.66
2022-12-11T06:23:42.626Z,101238.94
2022-12-11T06:26:10.329Z,101243.28
2022-12-11T06:28:37.246Z,101248.47
2022-12-11T06:31:04.748Z,101245.94
2022-12-11T06:33:31.483Z,101244.19
2022-12-11T06:36:05.904Z,101241.59
2022-12-11T06:38:32.507Z,101241.59
2022-12-11T06:41:02.472Z,101244.13
2022-12-11T06:43:28.801Z,101246.78
2022-12-11T06:45:59.167Z,101249.38
2022-12-11T06:48:28.657Z,101253.81
2022-12-11T06:50:55.052Z,101253.81
2022-12-11T06:53:22.061Z,101258.94
2022-12-11T06:55:48.401Z,101267.56
2022-12-11T06:58:14.859Z,101258.03
2022-12-11T07:00:41.323Z,101252.81
2022-12-11T07:03:07.774Z,101258.88
2022-12-11T07:05:34.463Z,101253.66
2022-12-11T07:08:01.633Z,101249.38
2022-12-11T07:10:28.025Z,101252.91
2022-12-11T07:12:54.818Z,101259.00
2022-12-11T07:15:21.320Z,101264.19
2022-12-11T07:17:47.709Z,101266.78
2022-12-11T07:20:14.284Z,101271.06
2022-12-11T07:22:46.271Z,101260.69
2022-12-11T07:25:13.663Z,101265.88
2022-12-11T07:27:41.404Z,101264.19
2022-12-11T07:30:09.111Z,101258.19
2022-12-11T07:32:35.682Z,101259.97
2022-12-11T07:35:02.198Z,101266.00
2022-12-11T07:37:28.582Z,101269.50
2022-12-11T07:39:54.995Z,101269.50
2022-12-11T07:42:21.466Z,101273.84
2022-12-11T07:44:47.946Z,101273.00
2022-12-11T07:47:14.312Z,101272.16
2022-12-11T07:49:40.698Z,101276.53
2022-12-11T07:52:07.037Z,101274.84
2022-12-11T07:54:33.399Z,101274.84
2022-12-11T07:56:59.783Z,101282.56
2022-12-11T07:59:26.231Z,101280.94
2022-12-11T08:01:52.762Z,101284.38
2022-12-11T08:04:19.215Z,101286.13
2022-12-11T08:06:45.637Z,101282.69
2022-12-11T08:09:20.613Z,101275.78
2022-12-11T08:11:51.897Z,101280.13
2022-12-11T08:14:19.535Z,101282.81
2022-12-11T08:16:46.069Z,101276.75
2022-12-11T08:19:13.309Z,101282.88
2022-12-11T08:21:40.639Z,101278.59
2022-12-11T08:24:08.828Z,101283.78
2022-12-11T08:26:35.193Z,101285.47
2022-12-11T08:29:02.585Z,101275.31
2022-12-11T08:31:29.844Z,101286.44
2022-12-11T08:33:57.248Z,101283.13
2022-12-11T08:36:24.187Z,101287.41
2022-12-11T08:38:51.188Z,101284.81
2022-12-11T08:41:20.361Z,101284.81
2022-12-11T08:43:47.015Z,101287.41
2022-12-11T08:46:14.542Z,101285.78
2022-12-11T08:48:42.563Z,101291.03
2022-12-11T08:51:13.863Z,101286.63
2022-12-11T08:53:40.671Z,101278.84
2022-12-11T08:56:13.501Z,101278.06
2022-12-11T08:58:39.993Z,101273.81
2022-12-11T09:01:08.905Z,101272.97
2022-12-11T09:03:37.025Z,101269.53
2022-12-11T09:06:05.577Z,101278.16
2022-12-11T09:08:33.381Z,101270.38
2022-12-11T09:11:07.050Z,101261.69
2022-12-11T09:13:33.808Z,101268.56
2022-12-11T09:16:00.485Z,101263.97
2022-12-11T09:18:27.217Z,101262.88
2022-12-11T09:21:05.125Z,101258.16
2022-12-11T09:23:31.549Z,101251.88
2022-12-11T09:25:58.266Z,101256.94
2022-12-11T09:28:25.822Z,101263.03
2022-12-11T09:30:52.607Z,101260.44
2022-12-11T09:33:19.202Z,101251.59
2022-12-11T09:35:45.587Z,101255.16
2022-12-11T09:38:11.978Z,101261.22
2022-12-11T09:40:43.231Z,101259.38
2022-12-11T09:43:16.913Z,101256.53
2022-12-11T09:45:43.273Z,101247.56
2022-12-11T09:48:11.094Z,101244.84
2022-12-11T09:50:37.637Z,101252.50
2022-12-11T09:53:13.050Z,101257.00
2022-12-11T09:55:54.753Z,101250.72
2022-12-11T09:58:34.495Z,101250.56
2022-12-11T10:01:14.369Z,101246.03
2022-12-11T10:03:50.314Z,101248.63
2022-12-11T10:06:22.771Z,101245.69
2022-12-11T10:09:13.775Z,101245.50
2022-12-11T10:11:56.933Z,101243.09
2022-12-11T10:14:44.175Z,101247.84
2022-12-11T10:17:16.086Z,101244.44
2022-12-11T10:19:42.931Z,101247.19
2022-12-11T10:22:18.230Z,101250.47
2022-12-11T10:27:41.432Z,101239.13
2022-12-11T10:30:34.734Z,101240.19
2022-12-11T10:33:38.777Z,101240.63
2022-12-11T10:36:08.835Z,101241.69
2022-12-11T10:38:41.147Z,101241.94
2022-12-11T10:41:18.867Z,101231.38
2022-12-11T10:43:48.872Z,101237.88
2022-12-11T10:46:32.995Z,101229.44
2022-12-11T10:49:00.541Z,101229.88
2022-12-11T10:51:32.912Z,101237.00
2022-12-11T10:54:24.716Z,101234.56
2022-12-11T10:56:51.539Z,101222.44
2022-12-11T10:59:29.642Z,101222.25
2022-12-11T11:01:57.581Z,101222.81
2022-12-11T11:04:31.222Z,101230.69
2022-12-11T11:07:03.421Z,101218.38
2022-12-11T11:09:35.449Z,101218.13
2022-12-11T11:12:07.696Z,101223.03
2022-12-11T11:14:34.654Z,101215.13
2022-12-11T11:17:01.347Z,101216.88
2022-12-11T11:19:32.404Z,101210.84
2022-12-11T11:22:06.576Z,101205.00
2022-12-11T11:24:40.570Z,101205.84
2022-12-11T11:27:48.708Z,101207.50
2022-12-11T11:30:35.306Z,101201.19
2022-12-11T11:33:12.724Z,101200.34
2022-12-11T11:35:44.222Z,101196.91
2022-12-11T11:38:26.656Z,101196.75
2022-12-11T11:41:10.107Z,101199.22
2022-12-11T11:43:47.363Z,101200.06
2022-12-11T11:46:25.758Z,101199.72
2022-12-11T11:49:20.618Z,101202.59
2022-12-11T11:52:01.043Z,101187.69
2022-12-11T11:54:36.060Z,101181.63
2022-12-11T11:57:15.710Z,101185.03
2022-12-11T11:59:47.510Z,101183.06
2022-12-11T12:02:16.701Z,101181.22
2022-12-11T12:04:44.039Z,101180.66
2022-12-11T12:07:23.725Z,101185.03
2022-12-11T12:10:35.272Z,101181.59
2022-12-11T12:13:44.743Z,101180.88
2022-12-11T12:16:02.889Z,101177.41
2022-12-11T12:18:58.615Z,101169.53
2022-12-11T12:21:35.537Z,101176.28
2022-12-11T12:24:35.951Z,101183.94
2022-12-11T12:27:50.398Z,101175.81
2022-12-11T12:30:21.988Z,101162.72
2022-12-11T12:33:25.968Z,101172.31
2022-12-11T12:36:13.432Z,101174.88
2022-12-11T12:39:04.423Z,101170.53
2022-12-11T12:41:30.848Z,101177.53
2022-12-11T12:44:02.792Z,101165.59
2022-12-11T12:46:54.978Z,101168.13
2022-12-11T12:49:33.256Z,101159.28
2022-12-11T12:52:01.814Z,101167.91
2022-12-11T12:54:30.152Z,101161.16
2022-12-11T12:56:58.796Z,101166.03
2022-12-11T12:59:27.374Z,101164.34
2022-12-11T13:01:59.919Z,101157.44
2022-12-11T13:04:56.716Z,101166.88
2022-12-11T13:07:30.075Z,101165.41
2022-12-11T13:09:59.750Z,101163.84
2022-12-11T13:12:41.905Z,101171.66
2022-12-11T13:15:43.510Z,101177.03
2022-12-11T13:18:34.796Z,101168.13
2022-12-11T13:21:03.298Z,101171.38
2022-12-11T13:23:32.194Z,101176.75
2022-12-11T13:26:01.055Z,101174.47
2022-12-11T13:28:33.094Z,101175.38
2022-12-11T13:31:02.179Z,101174.41
2022-12-11T13:33:30.452Z,101169.06
2022-12-11T13:36:15.762Z,101180.38
2022-12-11T13:38:48.927Z,101178.81
2022-12-11T13:41:15.498Z,101177.78
2022-12-11T13:43:44.042Z,101178.81
2022-12-11T13:46:13.495Z,101180.50
2022-12-11T13:48:47.788Z,101177.16
2022-12-11T13:51:18.317Z,101179.91
2022-12-11T13:53:45.297Z,101171.19
2022-12-11T13:56:22.426Z,101174.81
2022-12-11T13:58:49.020Z,101181.94
2022-12-11T14:01:29.095Z,101182.22
2022-12-11T14:03:58.918Z,101191.81
2022-12-11T14:06:27.924Z,101188.53
2022-12-11T14:08:57.077Z,101184.25
2022-12-11T14:11:39.042Z,101182.63
2022-12-11T14:14:16.536Z,101192.13
2022-12-11T14:16:43.077Z,101186.97
2022-12-11T14:19:10.865Z,101187.81
2022-12-11T14:21:37.346Z,101190.38
2022-12-11T14:24:06.434Z,101186.78
2022-12-11T14:26:34.995Z,101183.34
2022-12-11T14:29:02.734Z,101190.38
2022-12-11T14:31:34.805Z,101186.97
2022-12-11T14:34:28.127Z,101182.63
2022-12-11T14:36:56.025Z,101185.28
2022-12-11T14:39:33.877Z,101187.13
2022-12-11T14:42:04.929Z,101190.75
2022-12-11T14:44:42.266Z,101178.56
2022-12-11T14:47:18.849Z,101182.97
2022-12-11T14:49:54.340Z,101178.56
2022-12-11T14:52:29.139Z,101184.59
2022-12-11T14:55:03.781Z,101176.84
2022-12-11T14:57:33.074Z,101175.16
2022-12-11T14:59:59.954Z,101190.75
2022-12-11T15:02:35.516Z,101186.41
2022-12-11T15:05:10.713Z,101189.91
2022-12-11T15:07:37.274Z,101190.75
2022-12-11T15:10:04.569Z,101197.72
2022-12-11T15:12:31.806Z,101192.59
2022-12-11T15:15:06.313Z,101197.06
2022-12-11T15:17:36.951Z,101194.69
2022-12-11T15:20:08.692Z,101199.91
2022-12-11T15:22:36.270Z,101198.22
2022-12-11T15:25:03.617Z,101199.91
2022-12-11T15:27:39.789Z,101210.28
2022-12-11T15:30:26.368Z,101205.09
2022-12-11T15:33:17.342Z,101196.38
2022-12-11T15:35:56.235Z,101205.09
2022-12-11T15:38:48.915Z,101206.00
2022-12-11T15:41:20.965Z,101203.41
2022-12-11T15:43:47.878Z,101208.59
2022-12-11T15:46:14.351Z,101223.31
2022-12-11T15:48:40.814Z,101219.00
2022-12-11T15:51:07.287Z,101224.19
2022-12-11T15:53:33.652Z,101220.69
2022-12-11T15:56:00.363Z,101219.00
2022-12-11T15:58:27.331Z,101231.13
2022-12-11T16:00:54.661Z,101215.59
2022-12-11T16:03:22.747Z,101223.41
2022-12-11T16:05:51.342Z,101222.63
2022-12-11T16:08:21.571Z,101223.47
2022-12-11T16:10:48.735Z,101221.72
2022-12-11T16:13:15.176Z,101219.13
2022-12-11T16:15:44.695Z,101217.44
2022-12-11T16:18:14.129Z,101223.47
2022-12-11T16:20:41.660Z,101216.59
2022-12-11T16:23:09.416Z,101220.94
2022-12-11T16:25:39.930Z,101212.34
2022-12-11T16:28:06.901Z,101221.97
2022-12-11T16:30:35.879Z,101216.84
2022-12-11T16:33:10.297Z,101214.19
2022-12-11T16:35:38.688Z,101212.50
2022-12-11T16:38:05.224Z,101221.91
2022-12-11T16:40:31.662Z,101215.88
2022-12-11T16:42:58.097Z,101209.00
2022-12-11T16:45:26.099Z,101213.28
2022-12-11T16:47:52.987Z,101215.88
2022-12-11T16:50:19.682Z,101218.47
2022-12-11T16:52:47.239Z,101210.75
2022-12-11T16:55:15.064Z,101212.50
2022-12-11T16:57:41.941Z,101211.66
2022-12-11T17:00:12.070Z,101209.13
2022-12-11T17:02:38.802Z,101208.22
2022-12-11T17:05:05.544Z,101216.94
2022-12-11T17:07:32.697Z,101211.72
2022-12-11T17:10:00.566Z,101211.72
2022-12-11T17:12:27.895Z,101206.53
2022-12-11T17:14:55.584Z,101214.34
2022-12-11T17:17:21.976Z,101205.72
2022-12-11T17:19:48.384Z,101214.38
2022-12-11T17:22:15.173Z,101213.59
2022-12-11T17:24:41.529Z,101211.84
2022-12-11T17:27:08.233Z,101210.16
2022-12-11T17:29:34.658Z,101212.75
2022-12-11T17:32:03.007Z,101214.44
2022-12-11T17:34:34.588Z,101212.75
2022-12-11T17:37:04.510Z,101217.97
2022-12-11T17:39:32.342Z,101214.44
2022-12-11T17:41:58.851Z,101211.09
2022-12-11T17:44:26.507Z,101213.75
2022-12-11T17:46:53.065Z,101209.41
2022-12-11T17:49:19.728Z,101209.47
2022-12-11T17:51:46.294Z,101211.19
2022-12-11T17:54:12.811Z,101212.09
2022-12-11T17:56:39.291Z,101210.34
2022-12-11T17:59:05.911Z,101210.44
2022-12-11T18:01:32.985Z,101214.72
2022-12-11T18:04:01.634Z,101218.22
2022-12-11T18:06:28.994Z,101217.31
2022-12-11T18:08:55.795Z,101223.41
2022-12-11T18:11:23.033Z,101220.91
2022-12-11T18:13:50.742Z,101219.28
2022-12-11T18:16:28.783Z,101222.66
2022-12-11T18:18:56.387Z,101224.41
2022-12-11T18:21:26.122Z,101221.72
2022-12-11T18:23:53.387Z,101220.06
2022-12-11T18:26:20.112Z,101229.59
2022-12-11T18:28:47.547Z,101223.69
2022-12-11T18:31:14.483Z,101233.22
2022-12-11T18:33:42.806Z,101222.00
2022-12-11T18:36:10.294Z,101226.34
2022-12-11T18:38:37.190Z,101221.16
2022-12-11T18:41:05.664Z,101225.50
2022-12-11T18:43:32.421Z,101232.53
2022-12-11T18:45:58.862Z,101229.78
2022-12-11T18:48:25.229Z,101229.00
2022-12-11T18:50:52.596Z,101225.63
2022-12-11T18:53:19.521Z,101232.63
2022-12-11T18:55:48.433Z,101236.28
2022-12-11T18:58:16.944Z,101238.09
2022-12-11T19:00:43.599Z,101237.38
2022-12-11T19:03:10.759Z,101240.91
2022-12-11T19:05:40.260Z,101232.19
2022-12-11T19:08:06.735Z,101228.88
2022-12-11T19:10:33.220Z,101227.19
2022-12-11T19:12:59.630Z,101226.25
2022-12-11T19:15:27.466Z,101227.94
2022-12-11T19:17:53.814Z,101222.81
2022-12-11T19:23:06.744Z,101230.78
2022-12-11T19:25:33.622Z,101222.16
2022-12-11T19:28:00.279Z,101230.03
2022-12-11T19:30:26.709Z,101233.53
2022-12-11T19:32:53.106Z,101227.56
2022-12-11T19:35:19.576Z,101226.72
2022-12-11T19:37:45.912Z,101218.97
2022-12-11T19:40:14.323Z,101223.41
2022-12-11T19:42:40.777Z,101233.78
2022-12-11T19:45:07.500Z,101229.44
2022-12-11T19:47:34.689Z,101233.78
2022-12-11T19:50:01.017Z,101234.63
2022-12-11T19:52:27.479Z,101230.41
2022-12-11T19:54:53.893Z,101238.19
2022-12-11T19:57:20.306Z,101236.44
2022-12-11T19:59:47.997Z,101233.91
2022-12-11T20:02:16.746Z,101235.72
2022-12-11T20:04:43.206Z,101235.72
2022-12-11T20:07:09.676Z,101236.63
2022-12-11T20:09:36.029Z,101238.44
2022-12-11T20:12:03.382Z,101246.25
2022-12-11T20:14:29.912Z,101241.03
2022-12-11T20:17:14.727Z,101242.72
2022-12-11T20:19:42.106Z,101236.69
2022-12-11T20:22:09.169Z,101240.97
2022-12-11T20:24:35.946Z,101244.41
2022-12-11T20:27:02.647Z,101247.94
2022-12-11T20:29:29.053Z,101236.81
2022-12-11T20:31:55.544Z,101246.34
2022-12-11T20:34:21.986Z,101247.19
2022-12-11T20:36:48.859Z,101241.16
2022-12-11T20:39:15.577Z,101249.84
2022-12-11T20:41:42.015Z,101248.03
2022-12-11T20:44:08.491Z,101244.56
2022-12-11T20:46:35.011Z,101249.75
2022-12-11T20:49:01.584Z,101247.16
2022-12-11T20:51:28.932Z,101248.09
2022-12-11T20:53:59.064Z,101248.00
2022-12-11T20:56:29.437Z,101254.09
2022-12-11T20:58:57.508Z,101249.00
2022-12-11T21:01:25.993Z,101249.06
2022-12-11T21:03:53.479Z,101256.88
2022-12-11T21:06:25.976Z,101255.03
2022-12-11T21:08:53.782Z,101255.03
2022-12-11T21:11:20.413Z,101245.56
2022-12-11T21:13:46.936Z,101244.66
2022-12-11T21:16:13.440Z,101249.75
2022-12-11T21:18:41.429Z,101252.38
2022-12-11T21:21:07.898Z,101253.28
2022-12-11T21:23:34.574Z,101256.72
2022-12-11T21:26:01.634Z,101248.91
2022-12-11T21:28:33.566Z,101248.84
2022-12-11T21:31:07.562Z,101251.44
2022-12-11T21:33:34.101Z,101245.31
2022-12-11T21:36:00.857Z,101249.69
2022-12-11T21:38:29.368Z,101248.03
2022-12-11T21:40:56.420Z,101237.78
2022-12-11T21:43:24.012Z,101246.47
2022-12-11T21:46:06.490Z,101246.47
2022-12-11T21:48:33.237Z,101246.47
2022-12-11T21:51:10.248Z,101241.28
2022-12-11T21:53:36.904Z,101246.47
2022-12-11T21:56:09.421Z,101249.00
2022-12-11T21:58:37.689Z,101249.84
2022-12-11T22:01:06.760Z,101257.72
2022-12-11T22:03:33.219Z,101262.97
2022-12-11T22:05:59.537Z,101264.66
2022-12-11T22:08:26.025Z,101263.75
2022-12-11T22:10:52.542Z,101263.75
2022-12-11T22:13:19.093Z,101268.94
2022-12-11T22:15:45.916Z,101268.88
2022-12-11T22:18:12.866Z,101264.50
2022-12-11T22:20:39.220Z,101255.03
2022-12-11T22:23:05.548Z,101265.44
2022-12-11T22:25:31.944Z,101267.25
2022-12-11T22:27:58.347Z,101268.09
2022-12-11T22:30:24.868Z,101266.41
2022-12-11T22:32:51.271Z,101264.72
2022-12-11T22:35:17.849Z,101264.72
2022-12-11T22:37:44.190Z,101276.78
2022-12-11T22:40:10.837Z,101273.34
2022-12-11T22:42:37.185Z,101276.84
2022-12-11T22:45:04.337Z,101279.56
2022-12-11T22:47:30.723Z,101280.34
2022-12-11T22:49:57.112Z,101281.31
2022-12-11T22:52:23.563Z,101284.75
2022-12-11T22:54:50.006Z,101279.63
2022-12-11T22:57:16.350Z,101283.91
2022-12-11T22:59:42.776Z,101283.06
2022-12-11T23:02:09.368Z,101277.09
2022-12-11T23:04:35.871Z,101283.84
2022-12-11T23:07:02.383Z,101272.75
2022-12-11T23:09:28.809Z,101280.53
2022-12-11T23:11:55.738Z,101281.31
2022-12-11T23:14:22.303Z,101283.06
2022-12-11T23:16:48.735Z,101282.22
2022-12-11T23:19:16.293Z,101277.09
2022-12-11T23:21:44.183Z,101280.47
2022-12-11T23:24:10.944Z,101274.38
2022-12-11T23:26:37.509Z,101274.38
2022-12-11T23:29:05.653Z,101276.19
2022-12-11T23:31:32.879Z,101274.50
2022-12-11T23:33:59.707Z,101272.84
2022-12-11T23:36:26.597Z,101274.59
2022-12-11T23:38:54.974Z,101276.28
2022-12-11T23:41:22.365Z,101281.47
2022-12-11T23:43:48.769Z,101277.97
2022-12-11T23:46:19.019Z,101278.84
2022-12-11T23:48:46.093Z,101284.88
2022-12-11T23:51:15.430Z,101284.75
2022-12-11T23:53:42.383Z,101279.69
2022-12-11T23:56:12.358Z,101283.16
2022-12-11T23:58:39.713Z,101284.88
